Latest Coastal Weather Observations for Larapuna (Eddystone Point)

IDT60701

Issued at 6:22 pm EST Friday 30 September 2016 (issued every 10 minutes, with the page automatically refreshed every 10 minutes)

About coastal observations | Map of coastal stations | Coastal observations for TAS | Marine services | Other Formats
Station Details ID: 092045 Name: LARAPUNA (EDDYSTONE POINT) Lat: -40.99 Lon: 148.35 Height: 19.7 m
Data from the previous 72 hours. | See also: Recent months at Larapuna (Eddystone Point)
Date/Time
EST
Temp
°C
Wind Pressure Rain since
9am
mm
Weather Cloud Vis
km
Sea
Height
m
Swell
Dir  Spd
kts
Gust
kts
hPa Trend Height
m
Period
s
Dir
30/06:00pm 12.4 NW 8 10 993.3 - 0.0 - - - - - - -
30/05:30pm 13.7 NW 9 12 992.7 - 0.0 - - - - - - -
30/05:00pm 14.5 NW 10 14 992.4 - 0.0 - - - - - - -
30/04:30pm 15.2 NW 11 15 992.0 - 0.0 - - - - - - -
30/04:00pm 15.7 WNW 13 18 991.6 - 0.0 - - - - - - -
30/03:30pm 15.4 NW 12 18 991.3 - 0.0 - - - - - - -
30/03:00pm 16.1 NW 13 18 991.0 - 0.0 - - - - - - -
30/02:30pm 16.5 WNW 13 19 990.7 - 0.0 - - - - - - -
30/02:00pm 15.2 NW 12 19 990.7 - 0.0 - - - - - - -
30/01:30pm 14.6 NNW 15 18 990.7 - 0.0 - - - - - - -
30/01:00pm 14.2 N 17 20 990.6 - 0.0 - - - - - - -
30/12:30pm 14.8 NNW 13 17 990.7 - 0.0 - - - - - - -
30/12:00pm 15.6 N 17 21 990.7 - 0.0 - - - - - - -
30/11:30am 15.2 NNW 16 21 990.6 - 0.0 - - - - - - -
30/11:00am 14.9 NNW 16 22 990.7 - 0.0 - - - - - - -
30/10:30am 13.9 NNW 19 24 990.8 - 0.0 - - - - - - -
30/10:00am 13.3 NNW 19 24 990.8 - 0.0 - - - - - - -
30/09:30am 14.6 NW 15 20 990.7 - 0.0 - - - - - - -
30/09:00am 13.5 NW 17 22 990.4 - 23.6 - - - - - - -
30/08:30am 12.4 NNW 17 22 990.3 - 23.6 - - - - - - -
30/08:00am 11.4 NW 14 19 989.9 - 23.6 - - - - - - -
30/07:30am 10.8 WNW 13 21 989.4 - 23.6 - - - - - - -
30/07:00am 10.3 NW 13 17 989.3 - 23.6 - - - - - - -
30/06:30am 9.8 WNW 11 15 989.4 - 23.6 - - - - - - -
30/06:00am 9.2 WNW 12 16 989.2 - 23.6 - - - - - - -
30/05:30am 9.2 WNW 11 13 989.6 - 23.6 - - - - - - -
30/05:00am 9.1 W 7 11 989.3 - 23.6 - - - - - - -
30/04:30am 9.1 WNW 8 11 989.3 - 23.6 - - - - - - -
30/04:00am 9.1 WNW 9 11 989.5 - 23.6 - - - - - - -
30/03:30am 8.8 W 7 9 989.3 - 23.6 - - - - - - -
30/03:00am 9.4 NW 6 8 989.8 - 23.6 - - - - - - -
30/02:30am 9.2 WSW 1 4 990.3 - 23.6 - - - - - - -
30/02:00am 9.4 NNW 3 5 990.8 - 23.6 - - - - - - -
30/01:30am 9.4 W 5 6 990.9 - 23.6 - - - - - - -
30/01:00am 9.4 WSW 9 10 990.9 - 23.6 - - - - - - -
30/12:30am 9.4 WSW 7 9 991.6 - 23.6 - - - - - - -
30/12:00am 9.5 WSW 6 8 991.8 - 23.6 - - - - - - -
 
Date/Time
EST
Temp
°C
Wind Pressure Rain since
9am
mm
Weather Cloud Vis
km
Sea
Height
m
Swell
Dir  Spd
kts
Gust
kts
hPa Trend Height
m
Period
s
Dir
29/11:30pm 9.7 WSW 5 8 991.8 - 23.6 - - - - - - -
29/11:00pm 9.7 WSW 8 11 991.4 - 23.6 - - - - - - -
29/10:30pm 10.0 SW 7 8 991.8 - 23.4 - - - - - - -
29/10:00pm 9.8 WNW 4 5 992.5 - 23.4 - - - - - - -
29/09:30pm 9.9 NW 2 5 992.4 - 23.4 - - - - - - -
29/09:00pm 10.1 NW 5 7 992.1 - 23.4 - - - - - - -
29/08:30pm 10.2 WSW 5 7 992.2 - 23.4 - - - - - - -
29/08:00pm 10.3 W 4 6 992.1 - 23.4 - - - - - - -
29/07:30pm 10.5 WSW 8 11 991.7 - 23.4 - - - - - - -
29/07:00pm 10.6 W 9 12 991.4 - 22.0 - - - - - - -
29/06:30pm 11.0 WNW 14 21 991.2 - 20.0 - - - - - - -
29/06:27pm 11.0 WNW 15 22 991.2 - 19.8 - - - - - - -
29/06:05pm 11.3 NW 23 34 990.8 - 18.2 - - - - - - -
29/06:00pm 11.8 N 22 31 990.4 - 18.0 Rain - - - - - -
29/05:54pm 12.0 NE 22 28 990.2 - 18.0 - - - - - - -
29/05:30pm 12.7 NE 25 30 989.9 - 15.4 - - - - - - -
29/05:00pm 12.8 NNE 24 28 989.8 - 15.4 - - - - - - -
29/04:45pm 12.6 NNE 25 29 989.4 - 15.4 - - - - - - -
29/04:32pm 13.0 ENE 28 38 989.5 - 15.2 - - - - - - -
29/04:30pm 13.0 ENE 29 38 989.4 - 15.2 - - - - - - -
29/04:27pm 13.0 ENE 31 41 989.2 - 15.2 - - - - - - -
29/04:00pm 12.9 ENE 32 41 990.0 - 14.6 - - - - - - -
29/03:32pm 13.2 ENE 38 48 989.5 - 13.4 - - - - - - -
29/03:30pm 13.3 ENE 38 47 989.6 - 13.4 - - - - - - -
29/03:18pm 13.1 ENE 31 45 990.0 - 13.4 - - - - - - -
29/03:00pm 13.2 ENE 31 39 990.5 - 12.2 Rain - - - - - -
29/02:42pm 12.9 ENE 32 42 991.2 - 11.6 - - - - - - -
29/02:30pm 13.3 NE 32 40 991.4 - 11.2 - - - - - - -
29/02:00pm 13.5 NE 28 33 991.9 - 10.4 - - - - - - -
29/01:30pm 13.3 NNE 32 37 992.4 - 9.4 - - - - - - -
29/01:18pm 13.1 NNE 27 38 992.8 - 8.8 - - - - - - -
29/01:00pm 13.0 NNE 26 33 992.8 - 5.6 - - - - - - -
29/12:56pm 13.0 NNE 25 32 992.8 - 5.4 - - - - - - -
29/12:30pm 13.8 NE 31 45 993.0 - 1.8 - - - - - - -
29/12:28pm 14.2 NE 29 40 993.0 - 1.2 - - - - - - -
29/12:00pm 14.3 NE 30 36 993.1 - 0.8 Recent precip. - - - - - -
29/11:30am 14.3 NE 29 35 993.5 - 0.2 - - - - - - -
29/11:00am 14.7 NE 30 34 993.9 - 0.0 - - - - - - -
29/10:30am 15.2 NE 32 37 994.5 - 0.0 - - - - - - -
29/10:00am 15.1 NE 28 33 995.2 - 0.0 - - - - - - -
29/09:30am 14.9 NE 28 34 995.8 - 0.0 - - - - - - -
29/09:00am 15.2 NE 33 39 995.9 - 0.2 - - - - - - -
29/08:30am 15.0 NE 31 37 996.5 - 0.2 - - - - - - -
29/08:00am 14.9 NE 30 40 996.8 - 0.2 - - - - - - -
29/07:57am 14.8 NE 29 40 996.8 - 0.2 - - - - - - -
29/07:30am 14.7 NE 29 35 997.0 - 0.2 - - - - - - -
29/07:00am 14.5 NE 24 28 997.3 - 0.2 - - - - - - -
29/06:30am 14.3 NE 24 29 997.9 - 0.2 - - - - - - -
29/06:00am 14.3 NE 26 31 997.8 - 0.2 - - - - - - -
29/05:30am 14.2 NE 24 29 998.7 - 0.2 - - - - - - -
29/05:00am 14.1 NE 24 30 998.9 - 0.2 - - - - - - -
29/04:30am 14.1 NE 19 23 999.5 - 0.2 - - - - - - -
29/04:00am 14.0 NE 21 25 999.7 - 0.2 - - - - - - -
29/03:30am 13.8 NE 21 25 1000.2 - 0.2 - - - - - - -
29/03:00am 13.8 NE 21 25 1000.9 - 0.2 - - - - - - -
29/02:30am 13.5 NE 17 20 1001.4 - 0.2 - - - - - - -
29/02:00am 13.5 NE 17 21 1002.2 - 0.2 - - - - - - -
29/01:30am 13.3 NE 11 14 1003.2 - 0.2 - - - - - - -
29/01:00am 13.3 NE 14 16 1004.0 - 0.2 - - - - - - -
29/12:30am 13.4 NE 13 15 1004.6 - 0.2 - - - - - - -
29/12:00am 13.3 NNE 13 15 1005.1 - 0.2 - - - - - - -
 
Date/Time
EST
Temp
°C
Wind Pressure Rain since
9am
mm
Weather Cloud Vis
km
Sea
Height
m
Swell
Dir  Spd
kts
Gust
kts
hPa Trend Height
m
Period
s
Dir
28/11:30pm 12.4 NE 11 14 1005.0 - 0.2 - - - - - - -
28/11:00pm 11.9 NE 8 11 1005.4 - 0.2 - - - - - - -
28/10:30pm 11.4 ENE 6 7 1005.7 - 0.2 - - - - - - -
28/10:00pm 10.9 CALM 0 0 1006.3 - 0.2 - - - - - - -
28/09:30pm 11.3 NNW 4 5 1006.7 - 0.2 - - - - - - -
28/09:00pm 12.0 N 8 10 1006.8 - 0.2 - - - - - - -
28/08:30pm 12.2 N 9 13 1007.0 - 0.2 - - - - - - -
28/08:00pm 12.1 N 6 7 1007.3 - 0.2 - - - - - - -
28/07:30pm 12.0 N 7 9 1007.4 - 0.2 - - - - - - -
28/07:00pm 12.0 NNE 8 9 1006.9 - 0.2 - - - - - - -
28/06:30pm 11.9 NNW 8 9 1006.7 - 0.2 - - - - - - -
28/06:00pm 12.3 N 9 12 1006.5 - 0.2 - - - - - - -
28/05:30pm 12.7 N 11 14 1006.6 - 0.2 - - - - - - -
28/05:00pm 13.3 NNW 11 15 1006.8 - 0.2 - - - - - - -
28/04:30pm 13.7 N 14 18 1006.5 - 0.2 - - - - - - -
28/04:00pm 14.0 N 15 19 1006.2 - 0.2 - - - - - - -
28/03:30pm 14.5 N 15 19 1006.6 - 0.2 - - - - - - -
28/03:00pm 14.5 N 16 19 1007.1 - 0.2 - - - - - - -
28/02:30pm 14.5 N 19 23 1007.6 - 0.2 - - - - - - -
28/02:00pm 14.5 N 18 23 1007.8 - 0.2 - - - - - - -
28/01:30pm 14.6 N 17 22 1008.1 - 0.2 - - - - - - -
28/01:00pm 15.0 N 18 21 1008.3 - 0.2 - - - - - - -
28/12:30pm 15.1 NNW 17 23 1008.8 - 0.2 - - - - - - -
28/12:00pm 14.5 NNW 17 22 1009.3 - 0.2 - - - - - - -
28/11:30am 14.6 N 16 21 1009.4 - 0.2 - - - - - - -
28/11:00am 16.9 NW 13 17 1009.6 - 0.2 - - - - - - -
28/10:30am 16.6 NW 10 13 1009.9 - 0.2 - - - - - - -
28/10:00am 14.9 NW 9 14 1010.3 - 0.0 - - - - - - -
28/09:30am 15.8 NNW 9 11 1010.4 - 0.0 - - - - - - -
28/09:00am 14.7 NW 9 11 1010.6 - 0.0 - - - - - - -
28/08:30am 13.5 NW 7 11 1010.7 - 0.0 - - - - - - -
28/08:00am 11.8 WNW 7 9 1010.8 - 0.0 - - - - - - -
28/07:30am 10.8 NW 9 12 1010.7 - 0.0 - - - - - - -
28/07:00am 10.2 NW 7 9 1010.5 - 0.0 - - - - - - -
28/06:30am 10.3 N 6 7 1010.2 - 0.0 - - - - - - -
28/06:00am 9.7 NNW 5 7 1010.1 - 0.0 - - - - - - -
28/05:30am 9.2 NW 9 10 1009.7 - 0.0 - - - - - - -
28/05:00am 9.7 WSW 7 12 1009.5 - 0.0 - - - - - - -
28/04:30am 9.9 WNW 6 11 1009.4 - 0.0 - - - - - - -
28/04:00am 9.1 WNW 4 8 1009.3 - 0.0 - - - - - - -
28/03:30am 8.8 WSW 6 10 1009.0 - 0.0 - - - - - - -
28/03:00am 8.4 WNW 5 8 1008.7 - 0.0 - - - - - - -
28/02:30am 8.9 NW 7 11 1008.7 - 0.0 - - - - - - -
28/02:00am 8.9 WNW 7 11 1008.7 - 0.0 - - - - - - -
28/01:30am 8.8 NNW 6 8 1008.8 - 0.0 - - - - - - -
28/01:00am 8.7 NNW 5 7 1008.9 - 0.0 - - - - - - -
28/12:30am 8.6 NNW 5 7 1008.7 - 0.0 - - - - - - -
28/12:00am 8.8 NW 6 8 1008.7 - 0.0 - - - - - - -
 
Date/Time
EST
Temp
°C
Wind Pressure Rain since
9am
mm
Weather Cloud Vis
km
Sea
Height
m
Swell
Dir  Spd
kts
Gust
kts
hPa Trend Height
m
Period
s
Dir
27/11:30pm 9.4 NW 9 12 1008.8 - 0.0 - - - - - - -
27/11:00pm 9.6 WNW 9 12 1008.9 - 0.0 - - - - - - -
27/10:30pm 9.8 WNW 11 16 1008.8 - 0.0 - - - - - - -
27/10:00pm 9.8 WNW 11 17 1009.0 - 0.0 - - - - - - -
27/09:30pm 10.0 NW 12 16 1009.0 - 0.0 - - - - - - -
27/09:00pm 10.0 NW 11 15 1009.0 - 0.0 - - - - - - -
27/08:30pm 10.3 NW 11 15 1009.0 - 0.0 - - - - - - -
27/08:00pm 10.5 WNW 12 17 1008.9 - 0.0 - - - - - - -
27/07:30pm 10.8 WNW 13 17 1008.8 - 0.0 - - - - - - -
27/07:00pm 11.2 WNW 15 22 1008.5 - 0.0 - - - - - - -
27/06:30pm 11.4 WNW 13 19 1008.1 - 0.0 - - - - - - -

Other Formats:

Comma delimited format used in spreadsheet applications
http://www.bom.gov.au/fwo/IDT60701/IDT60701.94983.axf

JavaScript Object Notation format (JSON) in row-major order
http://www.bom.gov.au/fwo/IDT60701/IDT60701.94983.json